Time;durP1;ratioP1;P1;durP2;ratioP2;P2;SDS_P1;SDS_P2;PMS_P1;PMS_P2;Temp;Humidity;BMP_temperature;BMP_pressure;BME280_temperature;BME280_humidity;BME280_pressure;Samples;Min_cycle;Max_cycle;Signal;HPM_P1;HPM_P2
2020/12/04 00:00:53;;;;;;;;;86.25;64.50;;;;;-0.37;88.79;99040.19;5055616;28;8992;-52
2020/12/04 00:03:20;;;;;;;;;80.50;60.75;;;;;-0.34;89.02;99028.66;5056741;28;8822;-53
2020/12/04 00:05:47;;;;;;;;;111.50;76.75;;;;;-0.40;89.18;99024.44;5059905;28;8822;-53
2020/12/04 00:08:14;;;;;;;;;108.50;78.00;;;;;-0.42;89.33;99030.66;5058961;28;8871;-55
2020/12/04 00:10:41;;;;;;;;;87.50;68.00;;;;;-0.35;89.09;99035.72;5074717;28;8819;-54
2020/12/04 00:13:08;;;;;;;;;87.00;63.50;;;;;-0.34;88.31;99032.19;5056979;28;8837;-55
2020/12/04 00:15:35;;;;;;;;;88.50;59.50;;;;;-0.61;89.11;99030.28;5055532;28;8992;-51
2020/12/04 00:18:02;;;;;;;;;77.75;59.00;;;;;-0.58;89.21;99041.63;5074998;28;8858;-53
2020/12/04 00:20:28;;;;;;;;;85.25;62.50;;;;;-0.56;89.87;99037.16;5062915;28;8810;-55
2020/12/04 00:22:55;;;;;;;;;86.25;57.75;;;;;-0.68;89.80;99040.16;5069970;28;8896;-54
2020/12/04 00:25:23;;;;;;;;;108.00;77.50;;;;;-0.59;89.67;99031.13;5055722;28;8817;-55
2020/12/04 00:27:49;;;;;;;;;90.75;65.50;;;;;-0.29;90.14;99039.94;5055152;28;8966;-50
2020/12/04 00:30:16;;;;;;;;;84.00;61.50;;;;;-0.44;88.99;99035.97;5054755;28;8868;-52
2020/12/04 00:32:43;;;;;;;;;66.75;52.25;;;;;-0.36;89.57;99051.59;5071560;28;8831;-53
2020/12/04 00:35:10;;;;;;;;;85.25;60.00;;;;;-0.47;89.25;99051.88;5059415;28;8814;-56
2020/12/04 00:37:37;;;;;;;;;84.00;63.00;;;;;-0.61;89.02;99046.97;5062377;28;8830;-54
2020/12/04 00:40:04;;;;;;;;;81.50;61.75;;;;;-0.53;89.18;99031.81;5066429;28;8837;-54
2020/12/04 00:42:31;;;;;;;;;87.25;60.25;;;;;-0.59;89.26;99039.03;5055829;28;8860;-52
2020/12/04 00:44:58;;;;;;;;;84.25;58.00;;;;;-0.63;89.64;99038.25;5054161;28;8905;-53
2020/12/04 00:47:25;;;;;;;;;77.75;56.75;;;;;-0.73;89.26;99042.91;5054306;28;8837;-50
2020/12/04 00:49:52;;;;;;;;;92.00;63.00;;;;;-0.71;89.42;99041.09;5053410;28;8852;-55
2020/12/04 00:52:18;;;;;;;;;97.75;71.00;;;;;-0.87;89.84;99031.84;5054009;28;8829;-55
2020/12/04 00:54:45;;;;;;;;;93.00;66.75;;;;;-0.79;89.30;99024.63;5054012;28;8825;-53
2020/12/04 00:57:12;;;;;;;;;78.25;57.00;;;;;-0.72;89.32;99023.53;5054385;28;8849;-53
2020/12/04 00:59:40;;;;;;;;;94.50;71.50;;;;;-0.90;89.31;99016.09;5054376;28;8825;-53
2020/12/04 01:02:06;;;;;;;;;104.00;75.75;;;;;-0.91;90.15;99014.38;5055222;28;8809;-54
2020/12/04 01:04:33;;;;;;;;;89.25;64.00;;;;;-0.90;90.19;99014.31;5065309;28;8854;-52
2020/12/04 01:07:04;;;;;;;;;84.75;60.50;;;;;-0.92;90.24;99026.69;5074457;28;8846;-53
2020/12/04 01:09:35;;;;;;;;;84.75;63.75;;;;;-0.91;89.58;99022.28;5074245;28;8854;-52
2020/12/04 01:12:03;;;;;;;;;83.75;60.25;;;;;-0.97;89.84;99022.47;5063517;28;8830;-54
2020/12/04 01:14:30;;;;;;;;;83.50;58.00;;;;;-1.02;89.92;99024.34;5053859;28;8912;-52
2020/12/04 01:16:58;;;;;;;;;125.00;83.00;;;;;-0.85;90.17;99016.00;5056920;28;8841;-55
2020/12/04 01:19:25;;;;;;;;;110.75;81.75;;;;;-0.84;89.41;99020.34;5057644;28;8838;-53
2020/12/04 01:21:52;;;;;;;;;108.50;80.25;;;;;-0.87;89.68;99018.66;5066060;28;8815;-49
2020/12/04 01:24:19;;;;;;;;;89.00;60.75;;;;;-0.73;89.13;99011.28;5061707;28;8822;-52
2020/12/04 01:26:46;;;;;;;;;90.00;63.75;;;;;-0.79;89.46;99016.72;5071103;28;8827;-54
2020/12/04 01:29:13;;;;;;;;;85.25;61.00;;;;;-0.65;89.64;99007.56;5073506;28;8839;-55
2020/12/04 01:31:44;;;;;;;;;99.50;67.50;;;;;-0.81;89.46;99007.97;5058074;28;9507;-55
2020/12/04 01:34:11;;;;;;;;;124.00;91.50;;;;;-0.92;89.34;98994.22;5054143;28;8848;-52
2020/12/04 01:36:38;;;;;;;;;89.50;65.50;;;;;-0.96;89.94;98987.28;5069518;28;8819;-55
2020/12/04 01:39:05;;;;;;;;;111.00;78.00;;;;;-0.79;89.93;98979.81;5073288;28;8823;-54
2020/12/04 01:41:36;;;;;;;;;102.50;74.50;;;;;-0.97;89.23;98975.03;5045967;28;8859;-57
2020/12/04 01:44:04;;;;;;;;;99.75;70.25;;;;;-0.84;89.34;98976.44;5052648;28;8834;-54
2020/12/04 01:46:31;;;;;;;;;91.75;67.00;;;;;-0.90;89.34;98981.84;5061927;28;8799;-53
2020/12/04 01:48:58;;;;;;;;;92.25;66.25;;;;;-0.90;89.16;98960.78;5063304;28;8835;-54
2020/12/04 01:51:28;;;;;;;;;93.00;70.00;;;;;-0.91;89.42;98969.59;5041032;28;8818;-53
2020/12/04 01:53:55;;;;;;;;;92.50;65.00;;;;;-0.95;89.52;98955.66;5056691;28;8922;-54
2020/12/04 01:56:22;;;;;;;;;91.50;63.50;;;;;-0.88;89.58;98953.69;5056162;28;8868;-54
2020/12/04 01:58:49;;;;;;;;;92.75;63.00;;;;;-0.89;89.24;98963.38;5057089;28;8838;-54
2020/12/04 02:01:17;;;;;;;;;97.25;68.00;;;;;-0.89;89.45;98962.53;5059805;28;8818;-53
2020/12/04 02:03:45;;;;;;;;;87.25;62.50;;;;;-0.85;89.25;98964.16;5052286;28;8860;-55
2020/12/04 02:06:35;;;;;;;;;84.25;63.50;;;;;-1.01;89.59;98963.69;5046753;28;8844;-54
2020/12/04 02:09:14;;;;;;;;;78.75;56.50;;;;;-0.99;90.08;98961.91;5035981;28;8871;-54
2020/12/04 02:11:42;;;;;;;;;76.50;57.25;;;;;-0.96;89.86;98950.41;5053914;28;8829;-53
2020/12/04 02:14:11;;;;;;;;;69.25;49.25;;;;;-0.98;89.94;98944.31;5046318;28;8851;-53
2020/12/04 02:16:43;;;;;;;;;81.50;56.75;;;;;-1.08;89.43;98946.31;5045521;28;8854;-51
2020/12/04 02:19:10;;;;;;;;;58.75;49.00;;;;;-0.96;89.53;98947.78;5058906;28;8836;-54
2020/12/04 02:21:40;;;;;;;;;73.00;51.00;;;;;-0.99;89.45;98942.59;5056147;28;8818;-55
2020/12/04 02:24:07;;;;;;;;;82.50;58.00;;;;;-1.19;89.87;98936.06;5056078;28;8836;-54
2020/12/04 02:26:35;;;;;;;;;73.00;59.25;;;;;-0.98;90.17;98920.59;5057477;28;8880;-54
2020/12/04 02:29:03;;;;;;;;;78.75;63.00;;;;;-0.88;90.64;98917.66;5057483;28;8901;-55
2020/12/04 02:31:31;;;;;;;;;77.50;57.75;;;;;-0.95;89.58;98916.13;5063546;28;8914;-56
2020/12/04 02:33:58;;;;;;;;;69.50;48.75;;;;;-0.73;89.94;98929.56;5064719;28;8854;-54
2020/12/04 02:36:25;;;;;;;;;78.25;60.25;;;;;-0.89;89.09;98930.91;5069018;28;8934;-54
2020/12/04 02:38:52;;;;;;;;;74.00;53.50;;;;;-0.85;88.81;98932.53;5055896;28;8887;-54
2020/12/04 02:41:19;;;;;;;;;90.25;60.00;;;;;-0.96;89.38;98930.19;5057657;28;8936;-55
2020/12/04 02:43:46;;;;;;;;;79.25;59.25;;;;;-1.00;88.89;98938.22;5055607;28;8853;-52
2020/12/04 02:46:12;;;;;;;;;77.50;57.50;;;;;-0.75;89.25;98934.00;5057936;28;8814;-53
2020/12/04 02:48:40;;;;;;;;;74.75;57.50;;;;;-0.81;88.24;98928.91;5064986;28;8842;-53
2020/12/04 02:51:07;;;;;;;;;73.75;50.25;;;;;-0.76;88.69;98926.16;5062022;28;8823;-51
2020/12/04 02:53:35;;;;;;;;;81.50;54.50;;;;;-0.75;88.15;98910.28;5055597;28;8923;-53
2020/12/04 02:56:02;;;;;;;;;69.25;48.75;;;;;-0.90;88.99;98913.34;5055315;28;8810;-53
2020/12/04 02:58:30;;;;;;;;;76.00;58.25;;;;;-0.65;88.10;98903.00;5056006;28;8847;-55
2020/12/04 03:00:56;;;;;;;;;78.50;57.25;;;;;-0.71;88.63;98903.16;5056794;28;8833;-53
2020/12/04 03:03:23;;;;;;;;;89.25;66.00;;;;;-0.78;88.76;98899.84;5054242;28;8826;-55
2020/12/04 03:05:50;;;;;;;;;79.25;60.00;;;;;-0.91;89.04;98912.50;5058351;28;8823;-54
2020/12/04 03:08:17;;;;;;;;;84.25;57.25;;;;;-0.96;89.14;98909.13;5056299;28;8850;-54
2020/12/04 03:10:44;;;;;;;;;74.25;57.25;;;;;-0.96;88.98;98910.88;5073261;28;8838;-50
2020/12/04 03:13:11;;;;;;;;;79.50;56.00;;;;;-0.93;88.98;98913.44;5059284;28;8822;-57
2020/12/04 03:15:38;;;;;;;;;79.75;57.25;;;;;-0.87;89.09;98907.97;5055163;28;9488;-54
2020/12/04 03:18:05;;;;;;;;;75.00;57.00;;;;;-0.90;88.23;98903.66;5055559;28;8941;-53
2020/12/04 03:20:32;;;;;;;;;76.75;60.25;;;;;-1.05;88.61;98901.47;5055796;28;8822;-56
2020/12/04 03:22:59;;;;;;;;;72.00;54.75;;;;;-1.03;89.27;98899.63;5064748;28;8861;-54
2020/12/04 03:25:25;;;;;;;;;73.75;55.50;;;;;-1.21;89.78;98893.13;5056239;28;8953;-55
2020/12/04 03:27:52;;;;;;;;;78.75;54.25;;;;;-1.15;89.34;98898.22;5065121;28;8803;-54
2020/12/04 03:30:19;;;;;;;;;68.25;52.50;;;;;-1.07;89.60;98894.53;5055746;28;8831;-55
2020/12/04 03:32:47;;;;;;;;;84.50;58.00;;;;;-0.67;88.82;98889.84;5058705;28;8896;-54
2020/12/04 03:35:14;;;;;;;;;76.50;56.50;;;;;-0.89;88.93;98894.00;5063805;28;8852;-54
2020/12/04 03:37:43;;;;;;;;;294.75;255.50;;;;;-0.75;88.89;98912.06;5064803;28;9413;-55
2020/12/04 03:40:10;;;;;;;;;153.50;128.25;;;;;-0.83;89.49;98909.63;5054368;28;8822;-56
2020/12/04 03:42:37;;;;;;;;;94.75;69.50;;;;;-0.65;89.38;98917.94;5072634;28;8827;-54
2020/12/04 03:45:04;;;;;;;;;102.25;77.00;;;;;-0.75;89.17;98907.66;5070765;28;8830;-55
2020/12/04 03:47:31;;;;;;;;;111.00;80.00;;;;;-0.75;88.56;98898.88;5062274;28;8830;-52
2020/12/04 03:49:58;;;;;;;;;109.50;79.50;;;;;-0.62;88.33;98894.13;5056590;28;8853;-55
2020/12/04 03:52:25;;;;;;;;;124.50;89.00;;;;;-0.44;87.95;98898.88;5054279;28;8911;-54
2020/12/04 03:54:52;;;;;;;;;107.00;80.50;;;;;-0.43;88.29;98903.22;5054813;28;8826;-56
2020/12/04 03:57:18;;;;;;;;;79.25;55.00;;;;;-0.45;87.76;98910.28;5054259;28;8953;-52
2020/12/04 03:59:47;;;;;;;;;74.25;56.00;;;;;-0.41;88.61;98917.22;5055017;28;9468;-55
2020/12/04 04:02:14;;;;;;;;;70.50;57.25;;;;;-0.50;88.48;98912.22;5054552;28;8837;-54
2020/12/04 04:04:41;;;;;;;;;81.00;61.50;;;;;-0.46;88.59;98913.84;5073374;28;8953;-53
2020/12/04 04:07:07;;;;;;;;;72.25;54.00;;;;;-0.31;87.74;98904.63;5070047;28;8933;-54
2020/12/04 04:09:34;;;;;;;;;111.50;78.00;;;;;-0.31;87.46;98902.84;5054138;28;8838;-55
2020/12/04 04:12:01;;;;;;;;;92.50;66.75;;;;;-0.22;87.59;98897.28;5054567;28;8814;-55
2020/12/04 04:14:28;;;;;;;;;95.00;68.75;;;;;-0.13;86.38;98898.81;5054502;28;8830;-54
2020/12/04 04:16:55;;;;;;;;;83.50;58.50;;;;;-0.11;87.61;98891.69;5054691;28;8891;-55
2020/12/04 04:19:22;;;;;;;;;93.25;65.50;;;;;-0.18;87.04;98881.41;5066224;28;8835;-54
2020/12/04 04:21:49;;;;;;;;;91.25;67.00;;;;;-0.07;86.71;98889.81;5054816;28;8818;-54
2020/12/04 04:24:16;;;;;;;;;98.50;69.75;;;;;-0.02;86.48;98898.47;5054891;28;8849;-53
2020/12/04 04:26:43;;;;;;;;;75.00;53.50;;;;;0.03;86.59;98899.19;5054499;28;8860;-55
2020/12/04 04:29:10;;;;;;;;;73.25;49.50;;;;;0.04;86.95;98906.19;5053649;28;9557;-50
2020/12/04 04:31:36;;;;;;;;;149.25;101.75;;;;;-0.06;87.05;98899.47;5053770;28;8822;-55
2020/12/04 04:34:03;;;;;;;;;86.25;61.00;;;;;0.07;87.32;98895.53;5054015;28;8853;-54
2020/12/04 04:36:30;;;;;;;;;131.50;92.75;;;;;-0.02;87.04;98885.28;5054956;28;8830;-54
2020/12/04 04:38:58;;;;;;;;;117.00;87.25;;;;;0.00;86.88;98894.00;5054583;28;8995;-55
2020/12/04 04:41:25;;;;;;;;;113.75;80.00;;;;;0.32;87.14;98886.81;5054728;28;8829;-55
2020/12/04 04:43:54;;;;;;;;;116.25;84.75;;;;;0.16;86.09;98891.75;5054185;28;9585;-56
2020/12/04 04:46:47;;;;;;;;;109.25;78.50;;;;;0.08;86.66;98905.19;5053449;28;9851;-56
2020/12/04 04:49:28;;;;;;;;;73.00;58.50;;;;;0.20;87.02;98912.69;5054363;28;8854;-55
2020/12/04 04:51:57;;;;;;;;;48.00;30.25;;;;;0.18;87.14;98903.09;5058698;28;8851;-54
2020/12/04 04:54:28;;;;;;;;;80.00;56.25;;;;;0.26;86.49;98922.19;5058374;28;8821;-55
2020/12/04 04:56:55;;;;;;;;;70.25;57.00;;;;;0.29;86.53;98903.63;5057339;28;8951;-55
2020/12/04 04:59:22;;;;;;;;;71.75;56.50;;;;;0.49;85.92;98902.97;5058062;28;8854;-54
2020/12/04 05:01:51;;;;;;;;;88.50;63.75;;;;;0.44;85.36;98907.53;5056898;28;9374;-55
2020/12/04 05:04:18;;;;;;;;;91.00;65.50;;;;;0.37;86.27;98903.34;5058231;28;8873;-55
2020/12/04 05:06:45;;;;;;;;;77.00;58.25;;;;;0.35;86.17;98903.41;5058326;28;8821;-56
2020/12/04 05:09:28;;;;;;;;;79.00;59.50;;;;;0.49;86.07;98920.59;5036715;28;8824;-55
2020/12/04 05:12:01;;;;;;;;;76.50;53.75;;;;;0.42;86.57;98914.63;5045591;28;8825;-54
2020/12/04 05:14:28;;;;;;;;;73.25;54.75;;;;;0.45;86.85;98909.28;5057788;28;8876;-57
2020/12/04 05:16:57;;;;;;;;;80.75;53.00;;;;;0.42;86.62;98931.34;5057179;28;8842;-54
2020/12/04 05:19:41;;;;;;;;;69.25;49.00;;;;;0.60;86.27;98929.88;5057756;28;8846;-53
2020/12/04 05:22:14;;;;;;;;;68.50;57.50;;;;;0.59;85.80;98922.00;5058041;28;8837;-55
2020/12/04 05:24:43;;;;;;;;;53.00;41.50;;;;;0.49;86.92;98929.38;5058306;28;8845;-56
2020/12/04 05:27:30;;;;;;;;;28.25;9.50;;;;;0.39;87.06;98914.72;5057957;28;8852;-55
2020/12/04 05:29:59;;;;;;;;;84.50;58.25;;;;;0.73;86.62;98918.91;5057126;28;8908;-55
2020/12/04 05:32:27;;;;;;;;;82.75;59.00;;;;;0.62;86.78;98932.47;5057095;28;8876;-54
2020/12/04 05:35:10;;;;;;;;;76.00;52.00;;;;;0.60;86.10;98939.56;5057708;28;8849;-55
2020/12/04 05:37:37;;;;;;;;;74.25;55.75;;;;;0.54;86.95;98924.78;5057752;28;8841;-55
2020/12/04 05:40:04;;;;;;;;;69.25;52.75;;;;;0.40;87.32;98916.47;5056604;28;8862;-54
2020/12/04 05:42:37;;;;;;;;;80.75;57.25;;;;;0.43;86.62;98916.38;5057482;28;8822;-55
2020/12/04 05:45:05;;;;;;;;;116.50;81.50;;;;;0.41;86.76;98912.91;5057216;28;8859;-52
2020/12/04 05:47:45;;;;;;;;;87.75;66.00;;;;;0.54;86.53;98924.78;5056541;28;8814;-54
2020/12/04 05:50:14;;;;;;;;;73.50;51.50;;;;;0.51;86.56;98935.47;5057307;28;8837;-54
2020/12/04 05:52:41;;;;;;;;;73.50;49.50;;;;;0.47;86.95;98935.59;5057456;28;8837;-54
2020/12/04 05:55:10;;;;;;;;;82.25;60.00;;;;;0.58;87.13;98937.00;5057029;28;8844;-54
2020/12/04 05:57:46;;;;;;;;;82.00;56.00;;;;;0.68;87.21;98942.81;5057201;28;8882;-53
2020/12/04 06:00:15;;;;;;;;;61.50;48.00;;;;;0.68;86.46;98945.47;5056989;28;8865;-54
2020/12/04 06:02:43;;;;;;;;;77.75;57.00;;;;;0.54;86.38;98945.94;5056184;28;8838;-52
2020/12/04 06:05:12;;;;;;;;;82.75;61.75;;;;;0.53;87.06;98943.34;5056734;28;8870;-53
2020/12/04 06:07:40;;;;;;;;;79.50;54.75;;;;;0.60;87.33;98929.88;5057424;28;8837;-52
2020/12/04 06:10:08;;;;;;;;;71.00;57.75;;;;;0.53;87.35;98928.38;5056683;28;8862;-55
2020/12/04 06:12:36;;;;;;;;;76.00;54.00;;;;;0.60;87.37;98929.88;5057034;28;8911;-55
2020/12/04 06:15:24;;;;;;;;;98.75;69.00;;;;;0.64;87.15;98931.50;5056735;28;8846;-53
2020/12/04 06:17:52;;;;;;;;;99.50;67.50;;;;;0.76;86.52;98930.22;5056376;28;8892;-55
2020/12/04 06:20:21;;;;;;;;;97.25;67.50;;;;;0.84;86.69;98949.34;5055637;28;8875;-55
2020/12/04 06:23:16;;;;;;;;;84.25;58.00;;;;;0.67;87.11;98950.81;5056851;28;8862;-55
2020/12/04 06:25:52;;;;;;;;;83.50;63.25;;;;;0.70;86.42;98942.78;5055562;28;8834;-54
2020/12/04 06:28:21;;;;;;;;;77.00;57.50;;;;;0.90;86.30;98935.03;5056897;28;8956;-54
2020/12/04 06:30:59;;;;;;;;;72.00;53.75;;;;;0.93;86.53;98942.88;5055760;28;8850;-52
2020/12/04 06:33:36;;;;;;;;;65.00;45.75;;;;;1.09;85.83;98954.63;5056351;28;8884;-52
2020/12/04 06:36:06;;;;;;;;;73.00;53.25;;;;;0.86;86.20;98943.97;5056138;28;8826;-55
2020/12/04 06:38:33;;;;;;;;;69.00;51.75;;;;;0.82;86.66;98945.03;5056435;28;9465;-52
2020/12/04 06:41:26;;;;;;;;;82.75;54.50;;;;;0.91;86.63;98960.53;5056097;28;8838;-54
2020/12/04 06:44:04;;;;;;;;;72.75;53.50;;;;;1.05;86.54;98968.88;5055804;28;8886;-53
2020/12/04 06:46:34;;;;;;;;;75.00;55.75;;;;;1.12;85.51;98963.38;5056083;28;8833;-54
2020/12/04 06:49:34;;;;;;;;;73.50;52.50;;;;;1.00;85.91;98962.88;5056058;28;9586;-51
2020/12/04 06:52:17;;;;;;;;;73.00;51.75;;;;;0.99;86.00;98957.63;5056211;28;8818;-54
2020/12/04 06:54:50;;;;;;;;;64.00;45.50;;;;;1.04;85.69;98951.28;5056099;28;8928;-54
2020/12/04 06:57:19;;;;;;;;;75.25;54.75;;;;;1.05;85.62;98941.56;5055783;28;8912;-52
2020/12/04 06:59:47;;;;;;;;;68.00;51.00;;;;;1.03;85.60;98949.56;5055119;28;8849;-53
2020/12/04 07:02:24;;;;;;;;;69.75;52.25;;;;;1.09;85.89;98951.97;5054933;28;8844;-53
2020/12/04 07:04:54;;;;;;;;;69.25;56.50;;;;;1.21;86.14;98952.47;5056006;28;8845;-54
2020/12/04 07:07:26;;;;;;;;;74.00;55.50;;;;;1.24;85.48;98962.94;5055104;28;8877;-54
2020/12/04 07:10:02;;;;;;;;;76.75;52.00;;;;;1.28;84.66;98967.19;5054445;28;8858;-55
2020/12/04 07:12:31;;;;;;;;;68.75;50.50;;;;;1.35;85.92;98973.16;5054760;28;8837;-55
2020/12/04 07:14:59;;;;;;;;;69.75;46.75;;;;;1.43;85.06;98973.72;5038253;28;8853;-53
2020/12/04 07:17:30;;;;;;;;;57.25;46.00;;;;;1.41;84.84;98971.13;5054904;28;8884;-53
2020/12/04 07:19:59;;;;;;;;;48.50;37.00;;;;;1.69;84.99;98965.69;5055659;28;8923;-56
2020/12/04 07:22:27;;;;;;;;;73.50;52.50;;;;;1.61;85.19;98966.91;5055670;28;8880;-56
2020/12/04 07:24:56;;;;;;;;;68.75;52.00;;;;;1.63;84.65;98973.00;5055236;28;8842;-55
2020/12/04 07:27:29;;;;;;;;;72.25;57.75;;;;;1.81;84.20;98979.38;5055163;28;8830;-54
2020/12/04 07:29:57;;;;;;;;;62.75;47.00;;;;;1.92;83.72;98978.09;5055391;28;8889;-56
2020/12/04 07:32:26;;;;;;;;;68.25;51.00;;;;;1.93;84.65;98990.38;5054653;28;8877;-56
2020/12/04 07:34:53;;;;;;;;;63.75;50.00;;;;;2.01;84.46;98998.03;5055294;28;8953;-55
2020/12/04 07:37:29;;;;;;;;;108.50;75.25;;;;;2.05;83.85;99004.06;5055552;28;8829;-56
2020/12/04 07:39:56;;;;;;;;;73.00;54.00;;;;;2.20;83.88;98998.19;5055229;28;8841;-54
2020/12/04 07:42:23;;;;;;;;;70.25;49.25;;;;;2.22;84.05;98999.00;5055485;28;8854;-57
2020/12/04 07:44:53;;;;;;;;;54.50;42.50;;;;;2.19;84.15;98996.47;5054365;28;8854;-55
2020/12/04 07:47:20;;;;;;;;;54.00;42.75;;;;;2.34;83.47;99001.19;5055091;28;8833;-52
2020/12/04 07:49:52;;;;;;;;;77.25;52.75;;;;;2.42;83.55;98999.09;5055255;28;8877;-55
2020/12/04 07:52:25;;;;;;;;;61.00;40.00;;;;;2.61;83.22;98998.34;5053621;28;8810;-56
2020/12/04 07:54:59;;;;;;;;;73.50;49.00;;;;;2.58;83.24;99002.00;5054337;28;8991;-54
2020/12/04 07:57:41;;;;;;;;;61.25;48.50;;;;;2.62;83.52;98989.47;5054630;28;8864;-56
2020/12/04 08:00:13;;;;;;;;;61.25;47.25;;;;;2.64;83.87;98995.56;5055371;28;8854;-53
2020/12/04 08:02:39;;;;;;;;;65.25;50.75;;;;;2.58;83.47;98998.44;5054626;28;8818;-54
2020/12/04 08:05:07;;;;;;;;;73.75;56.75;;;;;2.69;83.05;98990.09;5055082;28;8867;-53
2020/12/04 08:07:34;;;;;;;;;81.50;59.50;;;;;2.69;83.42;98998.91;5054735;28;8864;-53
2020/12/04 08:10:02;;;;;;;;;77.00;55.00;;;;;2.68;83.43;98993.66;5054813;28;8850;-54
2020/12/04 08:12:33;;;;;;;;;72.00;56.25;;;;;2.75;83.05;98993.34;5054011;28;8964;-52
2020/12/04 08:15:03;;;;;;;;;72.00;52.25;;;;;2.79;83.26;98988.78;5068831;28;8822;-52
2020/12/04 08:17:32;;;;;;;;;62.25;48.00;;;;;2.84;83.31;98987.69;5054523;28;8877;-55
2020/12/04 08:20:00;;;;;;;;;68.75;51.75;;;;;2.96;82.79;98994.25;5054980;28;8842;-54
2020/12/04 08:22:34;;;;;;;;;70.00;50.00;;;;;2.98;82.69;98994.19;5054742;28;8861;-54
2020/12/04 08:25:07;;;;;;;;;53.25;41.75;;;;;3.09;82.08;98999.91;5055546;28;8842;-55
2020/12/04 08:27:44;;;;;;;;;62.25;44.25;;;;;3.08;82.78;99008.75;5059012;28;8861;-54
2020/12/04 08:30:21;;;;;;;;;59.25;42.00;;;;;2.99;82.54;99012.69;5057223;28;9468;-54
2020/12/04 08:33:03;;;;;;;;;87.75;67.00;;;;;3.35;84.22;99000.59;5055709;28;8854;-56
2020/12/04 08:35:39;;;;;;;;;169.75;134.25;;;;;3.05;82.63;98999.19;5058571;28;8944;-54
2020/12/04 08:38:24;;;;;;;;;52.25;42.50;;;;;3.11;82.39;99006.00;5058707;28;8845;-55
2020/12/04 08:40:53;;;;;;;;;56.00;38.25;;;;;3.24;82.42;99007.22;5058666;28;8814;-55
2020/12/04 08:43:23;;;;;;;;;53.00;44.25;;;;;3.34;82.50;99006.81;5059035;28;8846;-54
2020/12/04 08:45:56;;;;;;;;;48.75;38.25;;;;;3.34;81.55;99009.47;5057995;28;8870;-56
2020/12/04 08:48:29;;;;;;;;;46.25;36.00;;;;;3.39;82.59;99007.47;5058388;28;8869;-55
2020/12/04 08:51:02;;;;;;;;;46.25;39.25;;;;;3.39;82.07;99010.13;5058251;28;8857;-52
2020/12/04 08:53:32;;;;;;;;;57.25;39.00;;;;;3.35;82.12;99017.38;5058392;28;8903;-55
2020/12/04 08:56:03;;;;;;;;;46.75;34.25;;;;;3.44;81.73;99013.44;5057939;28;8915;-56
2020/12/04 08:58:30;;;;;;;;;44.25;30.00;;;;;3.50;82.27;99015.81;5057407;28;8849;-56
2020/12/04 09:00:59;;;;;;;;;44.25;35.75;;;;;3.51;81.73;99012.25;5057498;28;8968;-53
2020/12/04 09:03:27;;;;;;;;;51.75;38.25;;;;;3.73;81.82;99007.72;5057840;28;8853;-56
2020/12/04 09:05:57;;;;;;;;;44.75;32.00;;;;;3.65;81.59;98999.22;5057732;28;8814;-53
2020/12/04 09:08:24;;;;;;;;;29.00;29.00;;;;;3.74;81.58;98998.84;5057901;28;8850;-53
2020/12/04 09:10:52;;;;;;;;;45.00;34.00;;;;;3.77;80.46;99003.13;5057449;28;8850;-55
2020/12/04 09:13:18;;;;;;;;;40.25;32.50;;;;;3.81;81.15;99003.84;5057939;28;8838;-56
2020/12/04 09:15:47;;;;;;;;;46.50;33.75;;;;;3.87;80.54;99000.91;5056963;28;8845;-55
2020/12/04 09:18:16;;;;;;;;;44.50;34.25;;;;;3.78;80.67;98998.69;5057570;28;9251;-53
2020/12/04 09:20:43;;;;;;;;;36.00;33.25;;;;;3.83;80.43;99002.84;5056995;28;8841;-55
2020/12/04 09:23:10;;;;;;;;;38.00;33.75;;;;;3.68;81.17;98999.09;5057554;28;8914;-56
2020/12/04 09:25:36;;;;;;;;;43.75;33.25;;;;;3.67;80.60;99002.69;5057969;28;8849;-51
2020/12/04 09:28:15;;;;;;;;;41.00;33.25;;;;;3.66;81.14;98998.31;5056598;28;8826;-55
2020/12/04 09:30:42;;;;;;;;;44.50;32.50;;;;;3.66;81.63;98994.78;5057492;28;8845;-53
2020/12/04 09:33:09;;;;;;;;;41.25;37.00;;;;;3.61;81.56;98997.66;5057625;28;8873;-53
2020/12/04 09:35:37;;;;;;;;;42.50;31.75;;;;;3.81;81.35;98987.94;5057438;28;8934;-55
2020/12/04 09:38:03;;;;;;;;;43.50;33.75;;;;;3.92;80.46;98977.66;5056940;28;8845;-54
2020/12/04 09:40:31;;;;;;;;;50.50;36.75;;;;;3.84;81.27;98982.47;5056975;28;8842;-54
2020/12/04 09:42:58;;;;;;;;;46.00;38.75;;;;;3.86;81.26;98986.78;5057280;28;8944;-52
2020/12/04 09:45:25;;;;;;;;;42.00;33.00;;;;;3.71;80.98;98993.66;5057076;28;8861;-54
2020/12/04 09:47:52;;;;;;;;;59.25;41.25;;;;;3.75;81.55;98983.75;5057108;28;8821;-52
2020/12/04 09:50:18;;;;;;;;;42.75;32.75;;;;;3.92;80.27;98980.31;5057241;28;8849;-54
2020/12/04 09:52:46;;;;;;;;;38.75;29.25;;;;;3.92;80.41;98975.91;5057352;28;8833;-55
2020/12/04 09:55:13;;;;;;;;;49.75;36.75;;;;;4.02;80.79;98984.28;5056544;28;8948;-53
2020/12/04 09:57:43;;;;;;;;;43.50;31.75;;;;;3.91;80.85;98978.63;5056855;28;8838;-56
2020/12/04 10:00:11;;;;;;;;;41.25;34.00;;;;;4.12;80.57;98974.09;5057105;28;8833;-55
2020/12/04 10:02:38;;;;;;;;;35.75;24.75;;;;;4.03;80.78;98971.84;5056414;28;8829;-55
2020/12/04 10:05:06;;;;;;;;;38.25;34.25;;;;;4.31;81.20;98982.06;5056976;28;8829;-54
2020/12/04 10:07:33;;;;;;;;;51.00;35.00;;;;;4.04;80.30;98990.41;5057016;28;8857;-54
2020/12/04 10:10:00;;;;;;;;;48.25;34.00;;;;;4.00;80.44;98991.44;5056770;28;8883;-54
2020/12/04 10:12:27;;;;;;;;;41.00;36.25;;;;;4.29;80.56;98989.25;5056408;28;9433;-55
2020/12/04 10:14:54;;;;;;;;;43.50;33.50;;;;;4.21;80.51;98991.41;5056781;28;8849;-54
2020/12/04 10:17:21;;;;;;;;;48.75;37.00;;;;;4.05;81.57;98992.09;5056602;28;8853;-56
2020/12/04 10:19:47;;;;;;;;;54.25;39.50;;;;;4.10;80.27;98979.47;5056238;28;8861;-54
2020/12/04 10:22:14;;;;;;;;;44.50;32.75;;;;;4.13;80.40;98974.03;5056912;28;8838;-55
2020/12/04 10:24:41;;;;;;;;;46.50;36.50;;;;;3.97;80.64;98979.19;5056240;28;8849;-55
2020/12/04 10:27:09;;;;;;;;;42.50;34.50;;;;;3.91;80.78;98968.00;5056414;28;8888;-55
2020/12/04 10:29:36;;;;;;;;;40.00;29.00;;;;;4.06;80.51;98961.97;5055943;28;8865;-53
2020/12/04 10:32:03;;;;;;;;;41.50;30.25;;;;;4.14;80.09;98965.13;5056196;28;8869;-56
2020/12/04 10:34:30;;;;;;;;;50.50;33.25;;;;;4.12;80.56;98951.06;5056173;28;8860;-55
2020/12/04 10:36:57;;;;;;;;;41.50;31.25;;;;;4.32;79.82;98947.47;5055546;28;8854;-54
2020/12/04 10:39:24;;;;;;;;;48.75;36.50;;;;;4.45;80.18;98947.72;5056039;28;8884;-52
2020/12/04 10:41:52;;;;;;;;;45.50;35.75;;;;;4.53;79.77;98945.56;5055838;28;8899;-55
2020/12/04 10:44:19;;;;;;;;;59.50;40.50;;;;;4.60;80.50;98940.78;5055957;28;8838;-52
2020/12/04 10:46:46;;;;;;;;;35.75;28.75;;;;;4.54;79.11;98936.63;5056299;28;8838;-53
2020/12/04 10:49:12;;;;;;;;;43.25;37.00;;;;;4.51;79.94;98936.78;5055650;28;8833;-53
2020/12/04 10:51:39;;;;;;;;;45.00;37.00;;;;;4.42;79.96;98936.38;5055401;28;8896;-55
2020/12/04 10:54:07;;;;;;;;;43.25;33.75;;;;;4.51;79.79;98957.19;5056227;28;8860;-53
2020/12/04 10:56:34;;;;;;;;;47.50;35.50;;;;;4.42;79.79;98947.00;5055089;28;8935;-54
2020/12/04 10:59:01;;;;;;;;;47.00;37.00;;;;;4.42;79.93;98957.63;5055500;28;8830;-55
2020/12/04 11:01:39;;;;;;;;;42.00;34.50;;;;;4.34;80.56;98940.25;5054918;28;8956;-53
2020/12/04 11:06:54;;;;;;;;;42.50;36.25;;;;;4.55;80.49;98946.31;5055773;28;9434;-55
2020/12/04 11:09:21;;;;;;;;;47.00;39.00;;;;;4.45;79.35;98937.09;5055929;28;8915;-54
2020/12/04 11:11:48;;;;;;;;;41.25;33.75;;;;;4.59;78.97;98933.75;5048976;28;8958;-52
2020/12/04 11:14:15;;;;;;;;;53.75;37.00;;;;;4.56;80.00;98937.44;5034709;28;8874;-52
2020/12/04 11:16:43;;;;;;;;;43.00;37.50;;;;;4.65;80.28;98927.28;5035102;28;8883;-54
2020/12/04 11:19:11;;;;;;;;;26.25;24.50;;;;;4.64;80.25;98930.88;5035888;28;8848;-53
2020/12/04 11:21:38;;;;;;;;;46.25;38.00;;;;;4.61;79.64;98931.88;5035400;28;8852;-54
2020/12/04 11:24:05;;;;;;;;;61.25;41.50;;;;;4.70;80.38;98919.94;5041395;28;8845;-53
2020/12/04 11:26:33;;;;;;;;;47.25;34.75;;;;;4.67;79.75;98936.91;5055622;28;8841;-53
2020/12/04 11:29:00;;;;;;;;;48.25;36.50;;;;;4.92;79.42;98930.34;5054316;28;8865;-53
2020/12/04 11:31:27;;;;;;;;;51.50;39.75;;;;;4.78;79.49;98934.56;5054975;28;8968;-52
2020/12/04 11:33:54;;;;;;;;;50.00;40.00;;;;;4.93;78.83;98930.28;5054680;28;8845;-56
2020/12/04 11:36:21;;;;;;;;;45.50;42.00;;;;;5.36;78.48;98929.84;5055201;28;8833;-55
2020/12/04 11:38:48;;;;;;;;;50.75;42.00;;;;;5.34;77.21;98927.25;5055447;28;8834;-53
2020/12/04 11:41:15;;;;;;;;;62.25;44.75;;;;;5.35;77.61;98939.66;5054306;28;8884;-55